北九州 の空港の天気 - METARとTAF

北九州空港 ( RJFR / KKJ ) - 福岡県北九州市
飛行場実況気象(Metar)
観測時間01/23 17:00 JST (01/23 08:00 UTC)
風向・風速西北西 7m/s
視程10km以上
天気現象弱いしゅう雪
少しの雲 雲底高度 460m
全天の4割程度の雲 雲底高度 760m
全天の8割程度の雲 雲底高度 1070m
気温3℃
湿度65%
気圧1018hPa
METARRJFR 230800Z 29013KT 9999 -SHSN FEW015 SCT025 BKN035 03/M03 Q1018
過去の天気等 Google飛行場航空写真 Wunderground天気予報

過去48時間のMETAR

飛行場予報(TAF)
発表時間: 1/23 14:14 JST (1/23 05:14 UTC)
予報対象時間: 23日15時 JST ~ 24日21時 JST
風向・風速西北西 10m/s 瞬間風速 15m/s
視程10km以上
少しの雲 雲底高度 610m
全天の8割程度の雲 雲底高度 1,220m
24日0時 JST ~ 24日6時 JST に一時的に
視程3,000m
天気現象弱いしゅう雪
24日6時 JST ~ 24日15時 JST に一時的に
視程1,500m
天気現象弱いしゅう雪
24日15時 JST ~ 24日18時 JST に一時的に
視程3,000m
天気現象弱いしゅう雪
TAF RJFR 230514Z 2306/2412 29020G30KT 9999 FEW020 BKN040
TEMPO 2315/2321 3000 -SHSN
TEMPO 2321/2406 1500 -SHSN
TEMPO 2406/2409 3000 -SHSN
日本の空港のMETAR・TAFへのリンク

RJTT 東京国際空港
RJAA 新東京国際空港
RJBB 関西国際空港
RJOO 大阪空港
RJGG 中部国際空港
RJCC 新千歳空港
RJFF 福岡空港
ROAH 那覇空港


RJEC 旭川空港
RJCH 函館空港
RJCK 釧路空港
RJCM 女満別空港
RJCB 帯広空港
RJSA 青森空港
RJSS 仙台空港
RJSK 秋田空港
RJSF 福島空港
RJAH 茨城空港
RJSN 新潟空港
RJNT 富山空港
RJNK 小松飛行場
RJNS 静岡空港
RJOH 美保飛行場
RJOC 出雲空港
RJOB 岡山空港
RJOA 広島空港
RJOI 岩国飛行場
RJOT 高松空港
RJOM 松山空港
RJOK 高知空港
RJFR 北九州空港
RJFT 熊本空港
RJFU 長崎空港
RJFS 佐賀空港
RJFO 大分空港
RJFM 宮崎空港
RJFK 鹿児島空港
ROIG 石垣島空港
RJTY 横田飛行場
ROTM 普天間飛行場
RODN 嘉手納飛行場